メインページ
METAR-TAF:

METAR-TAF

空港 :

ジョモ・ケニヤッタ国際空港

ナイロビ, ケニヤ

緯度: 01-19S, 経度: 036-55E, 海抜: 1624m

現時点の気象観測

当レポートは23分前の01:00(UTC)に作成
の風 4kt
気温 16°C
湿度 82%
気圧 1022 hPa
視程10km以上
高度900ftの雲はほとんどない
高度1600ftの千切れ雲あり

METAR: HKJK 250100Z 17004KT 9999 FEW009 BKN016 16/13 Q1022

時間: 04:23 (01:23 UTC)

予報

当レポートは2時間23分前の23:00(UTC)に作成
予報は25日の 00時(UTC)から 26日の 06時(UTC)まで有効
東/北東の風 5kt
視程10km以上
高度1800ftの雲はほとんどない
25日の 00時(UTC)から 25日の 06時(UTC)まで一時的に
視程: 3000m
高度400ftの雲はほとんどない
高度1600ftの千切れ雲あり
散在霧
25日の 08時(UTC)から 25日の 11時(UTC)まで徐々に
高度2400ftの千切れ雲あり
25日の 12時(UTC)から 25日の 18時(UTC)まで一時的に
の風 10kt
高度2600ftの千切れ雲あり
25日の 20時(UTC)から 25日の 23時(UTC)まで徐々に
北/北東の風 5kt
高度2400ftの雲はほとんどない

TAF: HKJK 242300Z 2500/2606 06005KT 9999 FEW018 TEMPO 2500/2506 3000 BCFG FEW004 BKN016 BECMG 2508/2511 BKN024 TEMPO 2512/2518 09010KT BKN026 BECMG 2520/2523 03005KT FEW024

4,000以上の空港の気象観測と天気予報(METAR報とTAF報)

利用可能な観測所は地図上に黄色い丸と赤い丸で示す。

丸の上にカーソルを重ねると観測所名を参照できる。

次にクリックすると気象観測と天気予報を参照できる。

マップの切り替え:黒色「×」印の緑ボタンをクリックして拡大、「-」印の緑ボタンをクリックして縮小、緑色の三角印をクリックして隣りの地図に切り替え


METAR-TAF: